sensor_id;sensor_type;location;lat;lon;timestamp;P1;durP1;ratioP1;P2;durP2;ratioP2
44276;SDS011;29973;43.742;1.236;2023-11-19T00:02:18;39.55;;;26.60;;
44276;SDS011;29973;43.742;1.236;2023-11-19T00:04:44;37.38;;;25.67;;
44276;SDS011;29973;43.742;1.236;2023-11-19T00:07:10;36.28;;;25.48;;
44276;SDS011;29973;43.742;1.236;2023-11-19T00:09:38;32.67;;;26.20;;
44276;SDS011;29973;43.742;1.236;2023-11-19T00:12:04;40.75;;;25.58;;
44276;SDS011;29973;43.742;1.236;2023-11-19T00:14:31;38.50;;;24.80;;
44276;SDS011;29973;43.742;1.236;2023-11-19T00:16:57;33.90;;;23.23;;
44276;SDS011;29973;43.742;1.236;2023-11-19T00:19:23;60.05;;;28.85;;
44276;SDS011;29973;43.742;1.236;2023-11-19T00:21:48;37.65;;;27.48;;
44276;SDS011;29973;43.742;1.236;2023-11-19T00:24:14;39.67;;;28.60;;
44276;SDS011;29973;43.742;1.236;2023-11-19T00:26:41;45.92;;;26.17;;
44276;SDS011;29973;43.742;1.236;2023-11-19T00:29:07;46.05;;;31.55;;
44276;SDS011;29973;43.742;1.236;2023-11-19T00:31:33;60.95;;;35.83;;
44276;SDS011;29973;43.742;1.236;2023-11-19T00:33:59;60.35;;;38.60;;
44276;SDS011;29973;43.742;1.236;2023-11-19T00:36:25;51.08;;;32.42;;
44276;SDS011;29973;43.742;1.236;2023-11-19T00:38:50;50.63;;;31.75;;
44276;SDS011;29973;43.742;1.236;2023-11-19T00:41:19;48.63;;;33.25;;
44276;SDS011;29973;43.742;1.236;2023-11-19T00:43:46;44.88;;;29.08;;
44276;SDS011;29973;43.742;1.236;2023-11-19T00:46:12;44.90;;;31.42;;
44276;SDS011;29973;43.742;1.236;2023-11-19T00:48:38;38.85;;;28.05;;
44276;SDS011;29973;43.742;1.236;2023-11-19T00:51:07;49.85;;;30.35;;
44276;SDS011;29973;43.742;1.236;2023-11-19T00:53:33;42.42;;;29.27;;
44276;SDS011;29973;43.742;1.236;2023-11-19T00:56:01;43.38;;;31.60;;
44276;SDS011;29973;43.742;1.236;2023-11-19T00:58:27;43.75;;;29.35;;
44276;SDS011;29973;43.742;1.236;2023-11-19T01:00:52;38.35;;;27.60;;
44276;SDS011;29973;43.742;1.236;2023-11-19T01:03:18;41.45;;;28.13;;
44276;SDS011;29973;43.742;1.236;2023-11-19T01:05:44;47.45;;;29.00;;
44276;SDS011;29973;43.742;1.236;2023-11-19T01:08:11;54.33;;;35.00;;
44276;SDS011;29973;43.742;1.236;2023-11-19T01:10:37;49.38;;;32.85;;
44276;SDS011;29973;43.742;1.236;2023-11-19T01:13:03;39.55;;;29.05;;
44276;SDS011;29973;43.742;1.236;2023-11-19T01:15:31;56.05;;;31.08;;
44276;SDS011;29973;43.742;1.236;2023-11-19T01:17:57;48.67;;;29.27;;
44276;SDS011;29973;43.742;1.236;2023-11-19T01:20:23;53.42;;;28.80;;
44276;SDS011;29973;43.742;1.236;2023-11-19T01:22:49;39.83;;;25.92;;
44276;SDS011;29973;43.742;1.236;2023-11-19T01:25:16;51.47;;;28.35;;
44276;SDS011;29973;43.742;1.236;2023-11-19T01:27:41;48.20;;;29.17;;
44276;SDS011;29973;43.742;1.236;2023-11-19T01:30:07;47.83;;;31.42;;
44276;SDS011;29973;43.742;1.236;2023-11-19T01:32:40;55.45;;;29.42;;
44276;SDS011;29973;43.742;1.236;2023-11-19T01:35:06;42.78;;;26.85;;
44276;SDS011;29973;43.742;1.236;2023-11-19T01:37:33;38.72;;;26.63;;
44276;SDS011;29973;43.742;1.236;2023-11-19T01:40:00;44.50;;;29.63;;
44276;SDS011;29973;43.742;1.236;2023-11-19T01:42:27;46.05;;;28.60;;
44276;SDS011;29973;43.742;1.236;2023-11-19T01:44:57;55.70;;;29.08;;
44276;SDS011;29973;43.742;1.236;2023-11-19T01:47:24;44.33;;;26.45;;
44276;SDS011;29973;43.742;1.236;2023-11-19T01:49:51;39.90;;;27.90;;
44276;SDS011;29973;43.742;1.236;2023-11-19T01:52:17;39.40;;;24.63;;
44276;SDS011;29973;43.742;1.236;2023-11-19T01:54:44;43.25;;;26.30;;
44276;SDS011;29973;43.742;1.236;2023-11-19T01:57:10;34.85;;;23.13;;
44276;SDS011;29973;43.742;1.236;2023-11-19T01:59:37;41.90;;;24.00;;
44276;SDS011;29973;43.742;1.236;2023-11-19T02:02:03;48.97;;;26.30;;
44276;SDS011;29973;43.742;1.236;2023-11-19T02:04:30;52.45;;;25.73;;
44276;SDS011;29973;43.742;1.236;2023-11-19T02:06:56;45.90;;;27.83;;
44276;SDS011;29973;43.742;1.236;2023-11-19T02:09:23;43.13;;;27.35;;
44276;SDS011;29973;43.742;1.236;2023-11-19T02:11:49;38.42;;;27.27;;
44276;SDS011;29973;43.742;1.236;2023-11-19T02:14:17;50.00;;;27.92;;
44276;SDS011;29973;43.742;1.236;2023-11-19T02:16:43;53.40;;;30.63;;
44276;SDS011;29973;43.742;1.236;2023-11-19T02:19:09;36.25;;;25.70;;
44276;SDS011;29973;43.742;1.236;2023-11-19T02:21:36;43.45;;;27.95;;
44276;SDS011;29973;43.742;1.236;2023-11-19T02:24:06;47.45;;;26.85;;
44276;SDS011;29973;43.742;1.236;2023-11-19T02:26:40;61.28;;;32.55;;
44276;SDS011;29973;43.742;1.236;2023-11-19T02:29:13;48.85;;;29.80;;
44276;SDS011;29973;43.742;1.236;2023-11-19T02:31:39;41.63;;;28.08;;
44276;SDS011;29973;43.742;1.236;2023-11-19T02:34:04;46.50;;;29.92;;
44276;SDS011;29973;43.742;1.236;2023-11-19T02:36:31;44.13;;;28.83;;
44276;SDS011;29973;43.742;1.236;2023-11-19T02:38:57;50.22;;;31.35;;
44276;SDS011;29973;43.742;1.236;2023-11-19T02:41:23;51.28;;;29.40;;
44276;SDS011;29973;43.742;1.236;2023-11-19T02:43:49;43.45;;;29.70;;
44276;SDS011;29973;43.742;1.236;2023-11-19T02:46:15;59.78;;;31.65;;
44276;SDS011;29973;43.742;1.236;2023-11-19T02:48:43;57.45;;;32.25;;
44276;SDS011;29973;43.742;1.236;2023-11-19T02:51:10;54.67;;;32.83;;
44276;SDS011;29973;43.742;1.236;2023-11-19T02:53:37;44.75;;;28.35;;
44276;SDS011;29973;43.742;1.236;2023-11-19T02:56:04;38.92;;;22.90;;
44276;SDS011;29973;43.742;1.236;2023-11-19T02:58:42;42.03;;;25.70;;
44276;SDS011;29973;43.742;1.236;2023-11-19T03:01:10;47.03;;;28.05;;
44276;SDS011;29973;43.742;1.236;2023-11-19T03:03:44;48.25;;;27.48;;
44276;SDS011;29973;43.742;1.236;2023-11-19T03:06:18;41.38;;;24.90;;
44276;SDS011;29973;43.742;1.236;2023-11-19T03:08:44;38.15;;;23.42;;
44276;SDS011;29973;43.742;1.236;2023-11-19T03:11:10;42.10;;;24.50;;
44276;SDS011;29973;43.742;1.236;2023-11-19T03:13:36;44.50;;;25.10;;
44276;SDS011;29973;43.742;1.236;2023-11-19T03:16:01;41.85;;;26.02;;
44276;SDS011;29973;43.742;1.236;2023-11-19T03:18:27;33.20;;;21.83;;
44276;SDS011;29973;43.742;1.236;2023-11-19T03:20:53;34.63;;;23.70;;
44276;SDS011;29973;43.742;1.236;2023-11-19T03:23:19;48.90;;;25.33;;
44276;SDS011;29973;43.742;1.236;2023-11-19T03:25:44;45.70;;;25.77;;
44276;SDS011;29973;43.742;1.236;2023-11-19T03:28:10;42.95;;;27.38;;
44276;SDS011;29973;43.742;1.236;2023-11-19T03:30:36;39.45;;;23.58;;
44276;SDS011;29973;43.742;1.236;2023-11-19T03:33:02;55.47;;;26.35;;
44276;SDS011;29973;43.742;1.236;2023-11-19T03:35:28;49.65;;;28.20;;
44276;SDS011;29973;43.742;1.236;2023-11-19T03:37:54;54.47;;;26.90;;
44276;SDS011;29973;43.742;1.236;2023-11-19T03:40:19;48.65;;;27.15;;
44276;SDS011;29973;43.742;1.236;2023-11-19T03:42:45;49.20;;;28.00;;
44276;SDS011;29973;43.742;1.236;2023-11-19T03:45:11;42.25;;;29.02;;
44276;SDS011;29973;43.742;1.236;2023-11-19T03:47:37;50.97;;;27.85;;
44276;SDS011;29973;43.742;1.236;2023-11-19T03:50:03;39.97;;;27.42;;
44276;SDS011;29973;43.742;1.236;2023-11-19T03:52:30;56.10;;;29.45;;
44276;SDS011;29973;43.742;1.236;2023-11-19T03:54:55;49.13;;;29.05;;
44276;SDS011;29973;43.742;1.236;2023-11-19T03:57:22;37.08;;;26.30;;
44276;SDS011;29973;43.742;1.236;2023-11-19T03:59:48;42.08;;;26.60;;
44276;SDS011;29973;43.742;1.236;2023-11-19T04:02:14;50.40;;;29.63;;
44276;SDS011;29973;43.742;1.236;2023-11-19T04:04:41;42.40;;;27.00;;
44276;SDS011;29973;43.742;1.236;2023-11-19T04:07:07;45.42;;;25.48;;
44276;SDS011;29973;43.742;1.236;2023-11-19T04:09:33;38.05;;;26.33;;
44276;SDS011;29973;43.742;1.236;2023-11-19T04:11:59;39.13;;;25.95;;
44276;SDS011;29973;43.742;1.236;2023-11-19T04:14:25;41.55;;;28.75;;
44276;SDS011;29973;43.742;1.236;2023-11-19T04:16:51;39.60;;;25.67;;
44276;SDS011;29973;43.742;1.236;2023-11-19T04:19:17;43.45;;;26.40;;
44276;SDS011;29973;43.742;1.236;2023-11-19T04:21:44;33.63;;;24.15;;
44276;SDS011;29973;43.742;1.236;2023-11-19T04:24:10;37.28;;;25.52;;
44276;SDS011;29973;43.742;1.236;2023-11-19T04:26:42;43.70;;;25.30;;
44276;SDS011;29973;43.742;1.236;2023-11-19T04:29:11;44.92;;;24.95;;
44276;SDS011;29973;43.742;1.236;2023-11-19T04:31:37;34.97;;;22.50;;
44276;SDS011;29973;43.742;1.236;2023-11-19T04:34:04;41.35;;;24.08;;
44276;SDS011;29973;43.742;1.236;2023-11-19T04:36:30;35.58;;;24.20;;
44276;SDS011;29973;43.742;1.236;2023-11-19T04:38:55;38.50;;;23.58;;
44276;SDS011;29973;43.742;1.236;2023-11-19T04:41:21;45.58;;;25.30;;
44276;SDS011;29973;43.742;1.236;2023-11-19T04:43:47;50.15;;;25.80;;
44276;SDS011;29973;43.742;1.236;2023-11-19T04:46:12;40.92;;;25.10;;
44276;SDS011;29973;43.742;1.236;2023-11-19T04:48:38;40.50;;;25.40;;
44276;SDS011;29973;43.742;1.236;2023-11-19T04:51:07;44.38;;;24.08;;
44276;SDS011;29973;43.742;1.236;2023-11-19T04:53:34;37.93;;;23.97;;
44276;SDS011;29973;43.742;1.236;2023-11-19T04:56:00;46.20;;;24.77;;
44276;SDS011;29973;43.742;1.236;2023-11-19T04:58:25;46.42;;;26.00;;
44276;SDS011;29973;43.742;1.236;2023-11-19T05:00:54;45.58;;;26.70;;
44276;SDS011;29973;43.742;1.236;2023-11-19T05:03:20;45.40;;;25.17;;
44276;SDS011;29973;43.742;1.236;2023-11-19T05:05:47;36.97;;;23.13;;
44276;SDS011;29973;43.742;1.236;2023-11-19T05:08:13;36.00;;;22.95;;
44276;SDS011;29973;43.742;1.236;2023-11-19T05:10:39;47.03;;;23.83;;
44276;SDS011;29973;43.742;1.236;2023-11-19T05:13:05;40.75;;;24.50;;
44276;SDS011;29973;43.742;1.236;2023-11-19T05:15:31;37.78;;;23.38;;
44276;SDS011;29973;43.742;1.236;2023-11-19T05:17:56;49.63;;;25.50;;
44276;SDS011;29973;43.742;1.236;2023-11-19T05:20:22;37.03;;;22.88;;
44276;SDS011;29973;43.742;1.236;2023-11-19T05:22:48;35.03;;;21.65;;
44276;SDS011;29973;43.742;1.236;2023-11-19T05:25:18;43.22;;;23.27;;
44276;SDS011;29973;43.742;1.236;2023-11-19T05:27:45;39.15;;;23.30;;
44276;SDS011;29973;43.742;1.236;2023-11-19T05:30:10;41.25;;;24.90;;
44276;SDS011;29973;43.742;1.236;2023-11-19T05:32:36;36.50;;;23.00;;
44276;SDS011;29973;43.742;1.236;2023-11-19T05:35:02;34.22;;;23.65;;
44276;SDS011;29973;43.742;1.236;2023-11-19T05:37:28;36.40;;;23.95;;
44276;SDS011;29973;43.742;1.236;2023-11-19T05:39:54;36.65;;;24.23;;
44276;SDS011;29973;43.742;1.236;2023-11-19T05:42:19;38.17;;;23.52;;
44276;SDS011;29973;43.742;1.236;2023-11-19T05:44:45;45.33;;;25.77;;
44276;SDS011;29973;43.742;1.236;2023-11-19T05:47:11;43.78;;;25.17;;
44276;SDS011;29973;43.742;1.236;2023-11-19T05:49:37;35.30;;;22.70;;
44276;SDS011;29973;43.742;1.236;2023-11-19T05:52:03;39.03;;;24.00;;
44276;SDS011;29973;43.742;1.236;2023-11-19T05:54:32;44.08;;;23.65;;
44276;SDS011;29973;43.742;1.236;2023-11-19T05:57:02;49.58;;;25.30;;
44276;SDS011;29973;43.742;1.236;2023-11-19T05:59:29;46.83;;;24.48;;
44276;SDS011;29973;43.742;1.236;2023-11-19T06:01:57;41.88;;;23.92;;
44276;SDS011;29973;43.742;1.236;2023-11-19T06:04:23;43.38;;;24.98;;
44276;SDS011;29973;43.742;1.236;2023-11-19T06:06:48;39.63;;;23.38;;
44276;SDS011;29973;43.742;1.236;2023-11-19T06:09:14;42.00;;;25.77;;
44276;SDS011;29973;43.742;1.236;2023-11-19T06:11:40;46.60;;;25.35;;
44276;SDS011;29973;43.742;1.236;2023-11-19T06:14:06;41.75;;;25.58;;
44276;SDS011;29973;43.742;1.236;2023-11-19T06:16:32;45.25;;;25.15;;
44276;SDS011;29973;43.742;1.236;2023-11-19T06:18:58;35.90;;;24.33;;
44276;SDS011;29973;43.742;1.236;2023-11-19T06:21:24;49.40;;;26.23;;
44276;SDS011;29973;43.742;1.236;2023-11-19T06:23:50;46.60;;;26.17;;
44276;SDS011;29973;43.742;1.236;2023-11-19T06:26:17;43.10;;;28.70;;
44276;SDS011;29973;43.742;1.236;2023-11-19T06:28:43;48.08;;;27.60;;
44276;SDS011;29973;43.742;1.236;2023-11-19T06:31:09;40.50;;;23.10;;
44276;SDS011;29973;43.742;1.236;2023-11-19T06:33:35;41.97;;;22.75;;
44276;SDS011;29973;43.742;1.236;2023-11-19T06:36:01;47.53;;;25.23;;
44276;SDS011;29973;43.742;1.236;2023-11-19T06:38:26;36.05;;;23.10;;
44276;SDS011;29973;43.742;1.236;2023-11-19T06:40:52;42.63;;;24.45;;
44276;SDS011;29973;43.742;1.236;2023-11-19T06:43:18;45.63;;;22.55;;
44276;SDS011;29973;43.742;1.236;2023-11-19T06:45:43;34.33;;;22.63;;
44276;SDS011;29973;43.742;1.236;2023-11-19T06:48:09;38.40;;;23.63;;
44276;SDS011;29973;43.742;1.236;2023-11-19T06:50:35;33.60;;;22.08;;
44276;SDS011;29973;43.742;1.236;2023-11-19T06:53:01;35.65;;;22.13;;
44276;SDS011;29973;43.742;1.236;2023-11-19T06:55:27;36.22;;;20.13;;
44276;SDS011;29973;43.742;1.236;2023-11-19T06:57:52;40.42;;;21.60;;
44276;SDS011;29973;43.742;1.236;2023-11-19T07:00:18;30.60;;;19.60;;
44276;SDS011;29973;43.742;1.236;2023-11-19T07:02:44;31.10;;;20.63;;
44276;SDS011;29973;43.742;1.236;2023-11-19T07:05:10;40.45;;;22.45;;
44276;SDS011;29973;43.742;1.236;2023-11-19T07:07:37;32.20;;;22.00;;
44276;SDS011;29973;43.742;1.236;2023-11-19T07:10:03;36.38;;;21.17;;
44276;SDS011;29973;43.742;1.236;2023-11-19T07:12:29;33.65;;;20.67;;
44276;SDS011;29973;43.742;1.236;2023-11-19T07:14:55;37.67;;;21.48;;
44276;SDS011;29973;43.742;1.236;2023-11-19T07:17:21;41.03;;;22.48;;
44276;SDS011;29973;43.742;1.236;2023-11-19T07:19:49;35.75;;;22.67;;
44276;SDS011;29973;43.742;1.236;2023-11-19T07:22:16;40.22;;;23.05;;
44276;SDS011;29973;43.742;1.236;2023-11-19T07:24:42;40.38;;;20.48;;
44276;SDS011;29973;43.742;1.236;2023-11-19T07:27:08;34.53;;;21.58;;
44276;SDS011;29973;43.742;1.236;2023-11-19T07:29:34;39.85;;;23.88;;
44276;SDS011;29973;43.742;1.236;2023-11-19T07:32:00;33.00;;;21.30;;
44276;SDS011;29973;43.742;1.236;2023-11-19T07:34:27;33.78;;;23.40;;
44276;SDS011;29973;43.742;1.236;2023-11-19T07:36:54;51.65;;;26.95;;
44276;SDS011;29973;43.742;1.236;2023-11-19T07:39:22;42.85;;;26.77;;
44276;SDS011;29973;43.742;1.236;2023-11-19T07:41:48;40.70;;;25.95;;
44276;SDS011;29973;43.742;1.236;2023-11-19T07:44:14;40.90;;;27.83;;
44276;SDS011;29973;43.742;1.236;2023-11-19T07:46:40;39.00;;;25.98;;
44276;SDS011;29973;43.742;1.236;2023-11-19T07:49:07;38.55;;;27.80;;
44276;SDS011;29973;43.742;1.236;2023-11-19T07:51:32;43.65;;;30.55;;
44276;SDS011;29973;43.742;1.236;2023-11-19T07:53:58;51.15;;;31.55;;
44276;SDS011;29973;43.742;1.236;2023-11-19T07:56:24;53.20;;;25.90;;
44276;SDS011;29973;43.742;1.236;2023-11-19T07:58:50;41.78;;;25.23;;
44276;SDS011;29973;43.742;1.236;2023-11-19T08:01:16;57.08;;;32.08;;
44276;SDS011;29973;43.742;1.236;2023-11-19T08:03:42;51.05;;;32.90;;
44276;SDS011;29973;43.742;1.236;2023-11-19T08:06:07;46.83;;;30.73;;
44276;SDS011;29973;43.742;1.236;2023-11-19T08:08:33;51.17;;;32.90;;
44276;SDS011;29973;43.742;1.236;2023-11-19T08:11:00;46.72;;;32.03;;
44276;SDS011;29973;43.742;1.236;2023-11-19T08:13:25;46.03;;;32.17;;
44276;SDS011;29973;43.742;1.236;2023-11-19T08:15:51;46.53;;;29.67;;
44276;SDS011;29973;43.742;1.236;2023-11-19T08:18:17;44.60;;;30.60;;
44276;SDS011;29973;43.742;1.236;2023-11-19T08:20:43;43.72;;;32.42;;
44276;SDS011;29973;43.742;1.236;2023-11-19T08:23:10;36.85;;;30.05;;
44276;SDS011;29973;43.742;1.236;2023-11-19T08:25:36;46.08;;;37.75;;
44276;SDS011;29973;43.742;1.236;2023-11-19T08:28:02;52.40;;;40.92;;
44276;SDS011;29973;43.742;1.236;2023-11-19T08:30:28;46.85;;;41.42;;
44276;SDS011;29973;43.742;1.236;2023-11-19T08:32:55;49.85;;;44.75;;
44276;SDS011;29973;43.742;1.236;2023-11-19T08:35:21;51.75;;;46.72;;
44276;SDS011;29973;43.742;1.236;2023-11-19T08:37:47;49.05;;;44.05;;
44276;SDS011;29973;43.742;1.236;2023-11-19T08:40:12;51.53;;;46.55;;
44276;SDS011;29973;43.742;1.236;2023-11-19T08:42:39;51.10;;;46.25;;
44276;SDS011;29973;43.742;1.236;2023-11-19T08:45:06;52.38;;;47.15;;
44276;SDS011;29973;43.742;1.236;2023-11-19T08:47:35;49.20;;;44.28;;
44276;SDS011;29973;43.742;1.236;2023-11-19T08:50:01;52.65;;;47.33;;
44276;SDS011;29973;43.742;1.236;2023-11-19T08:52:26;49.75;;;45.17;;
44276;SDS011;29973;43.742;1.236;2023-11-19T08:54:52;50.10;;;45.80;;
44276;SDS011;29973;43.742;1.236;2023-11-19T08:57:18;50.33;;;45.80;;
44276;SDS011;29973;43.742;1.236;2023-11-19T08:59:44;52.35;;;47.95;;
44276;SDS011;29973;43.742;1.236;2023-11-19T09:02:10;52.13;;;47.80;;
44276;SDS011;29973;43.742;1.236;2023-11-19T09:04:36;44.20;;;40.45;;
44276;SDS011;29973;43.742;1.236;2023-11-19T09:07:02;45.50;;;41.83;;
44276;SDS011;29973;43.742;1.236;2023-11-19T09:09:28;50.33;;;46.63;;
44276;SDS011;29973;43.742;1.236;2023-11-19T09:11:54;43.40;;;40.30;;
44276;SDS011;29973;43.742;1.236;2023-11-19T09:14:20;46.60;;;43.35;;
44276;SDS011;29973;43.742;1.236;2023-11-19T09:16:51;49.22;;;45.67;;
44276;SDS011;29973;43.742;1.236;2023-11-19T09:19:17;59.42;;;55.10;;
44276;SDS011;29973;43.742;1.236;2023-11-19T09:21:43;68.45;;;64.10;;
44276;SDS011;29973;43.742;1.236;2023-11-19T09:24:08;45.85;;;42.40;;
44276;SDS011;29973;43.742;1.236;2023-11-19T09:26:34;19.35;;;17.40;;
44276;SDS011;29973;43.742;1.236;2023-11-19T09:29:01;12.82;;;9.93;;
44276;SDS011;29973;43.742;1.236;2023-11-19T09:31:27;11.55;;;8.85;;
44276;SDS011;29973;43.742;1.236;2023-11-19T09:33:53;11.50;;;7.30;;
44276;SDS011;29973;43.742;1.236;2023-11-19T09:36:18;10.27;;;6.75;;
44276;SDS011;29973;43.742;1.236;2023-11-19T09:38:44;10.43;;;6.40;;
44276;SDS011;29973;43.742;1.236;2023-11-19T09:41:10;7.55;;;5.22;;
44276;SDS011;29973;43.742;1.236;2023-11-19T09:43:41;8.65;;;5.53;;
44276;SDS011;29973;43.742;1.236;2023-11-19T09:46:11;8.18;;;5.03;;
44276;SDS011;29973;43.742;1.236;2023-11-19T09:48:40;9.15;;;5.25;;
44276;SDS011;29973;43.742;1.236;2023-11-19T09:51:08;7.55;;;5.53;;
44276;SDS011;29973;43.742;1.236;2023-11-19T09:53:35;8.50;;;5.65;;
44276;SDS011;29973;43.742;1.236;2023-11-19T09:56:02;9.20;;;5.18;;
44276;SDS011;29973;43.742;1.236;2023-11-19T09:58:31;6.63;;;5.40;;
44276;SDS011;29973;43.742;1.236;2023-11-19T10:00:57;7.75;;;5.30;;
44276;SDS011;29973;43.742;1.236;2023-11-19T10:03:24;13.45;;;5.95;;
44276;SDS011;29973;43.742;1.236;2023-11-19T10:05:52;9.98;;;5.68;;
44276;SDS011;29973;43.742;1.236;2023-11-19T10:08:21;9.75;;;5.63;;
44276;SDS011;29973;43.742;1.236;2023-11-19T10:10:47;11.05;;;5.93;;
44276;SDS011;29973;43.742;1.236;2023-11-19T10:15:42;9.50;;;5.35;;
44276;SDS011;29973;43.742;1.236;2023-11-19T10:18:09;11.30;;;6.03;;
44276;SDS011;29973;43.742;1.236;2023-11-19T10:20:40;8.73;;;5.53;;
44276;SDS011;29973;43.742;1.236;2023-11-19T10:23:06;9.50;;;5.85;;
44276;SDS011;29973;43.742;1.236;2023-11-19T10:25:32;13.50;;;5.57;;
44276;SDS011;29973;43.742;1.236;2023-11-19T10:27:58;9.45;;;5.57;;
44276;SDS011;29973;43.742;1.236;2023-11-19T10:30:28;10.07;;;6.03;;
44276;SDS011;29973;43.742;1.236;2023-11-19T10:33:10;9.43;;;6.00;;
44276;SDS011;29973;43.742;1.236;2023-11-19T10:35:55;7.85;;;5.53;;
44276;SDS011;29973;43.742;1.236;2023-11-19T10:38:27;10.15;;;5.90;;
44276;SDS011;29973;43.742;1.236;2023-11-19T10:40:53;9.00;;;5.40;;
44276;SDS011;29973;43.742;1.236;2023-11-19T10:43:20;9.10;;;6.20;;
44276;SDS011;29973;43.742;1.236;2023-11-19T10:45:49;7.85;;;5.70;;
44276;SDS011;29973;43.742;1.236;2023-11-19T10:48:15;11.45;;;6.43;;
44276;SDS011;29973;43.742;1.236;2023-11-19T10:50:42;8.18;;;5.43;;
44276;SDS011;29973;43.742;1.236;2023-11-19T10:53:10;7.82;;;5.93;;
44276;SDS011;29973;43.742;1.236;2023-11-19T10:55:39;10.70;;;5.90;;
44276;SDS011;29973;43.742;1.236;2023-11-19T10:58:05;8.68;;;5.72;;
44276;SDS011;29973;43.742;1.236;2023-11-19T11:00:43;9.05;;;6.03;;
44276;SDS011;29973;43.742;1.236;2023-11-19T11:03:15;9.32;;;6.55;;
44276;SDS011;29973;43.742;1.236;2023-11-19T11:05:48;10.63;;;6.40;;
44276;SDS011;29973;43.742;1.236;2023-11-19T11:08:15;8.80;;;5.93;;
44276;SDS011;29973;43.742;1.236;2023-11-19T11:10:43;9.68;;;6.25;;
44276;SDS011;29973;43.742;1.236;2023-11-19T11:13:10;8.27;;;5.85;;
44276;SDS011;29973;43.742;1.236;2023-11-19T11:15:38;9.52;;;6.05;;
44276;SDS011;29973;43.742;1.236;2023-11-19T11:18:07;9.32;;;6.30;;
44276;SDS011;29973;43.742;1.236;2023-11-19T11:20:34;11.13;;;6.03;;
44276;SDS011;29973;43.742;1.236;2023-11-19T11:37:24;10.25;;;5.35;;
44276;SDS011;29973;43.742;1.236;2023-11-19T11:40:15;6.40;;;3.85;;
44276;SDS011;29973;43.742;1.236;2023-11-19T11:42:41;5.43;;;4.32;;
44276;SDS011;29973;43.742;1.236;2023-11-19T11:45:08;6.55;;;4.50;;
44276;SDS011;29973;43.742;1.236;2023-11-19T11:50:23;11.07;;;4.57;;
44276;SDS011;29973;43.742;1.236;2023-11-19T11:55:28;7.85;;;4.57;;
44276;SDS011;29973;43.742;1.236;2023-11-19T11:57:59;5.28;;;4.07;;
44276;SDS011;29973;43.742;1.236;2023-11-19T12:02:55;8.23;;;4.40;;
44276;SDS011;29973;43.742;1.236;2023-11-19T12:05:22;10.38;;;5.07;;
44276;SDS011;29973;43.742;1.236;2023-11-19T12:07:54;8.77;;;5.90;;
44276;SDS011;29973;43.742;1.236;2023-11-19T12:10:29;7.78;;;5.53;;
44276;SDS011;29973;43.742;1.236;2023-11-19T12:12:59;10.93;;;5.57;;
44276;SDS011;29973;43.742;1.236;2023-11-19T12:15:26;8.25;;;5.55;;
44276;SDS011;29973;43.742;1.236;2023-11-19T12:17:53;9.55;;;5.57;;
44276;SDS011;29973;43.742;1.236;2023-11-19T12:20:21;8.55;;;5.60;;
44276;SDS011;29973;43.742;1.236;2023-11-19T12:22:48;10.73;;;5.82;;
44276;SDS011;29973;43.742;1.236;2023-11-19T12:25:14;10.98;;;5.00;;
44276;SDS011;29973;43.742;1.236;2023-11-19T12:27:48;8.88;;;5.38;;
44276;SDS011;29973;43.742;1.236;2023-11-19T12:30:22;7.47;;;4.93;;
44276;SDS011;29973;43.742;1.236;2023-11-19T12:32:51;6.45;;;5.13;;
44276;SDS011;29973;43.742;1.236;2023-11-19T12:35:21;8.93;;;4.47;;
44276;SDS011;29973;43.742;1.236;2023-11-19T12:37:51;12.32;;;5.63;;
44276;SDS011;29973;43.742;1.236;2023-11-19T12:40:18;6.38;;;4.65;;
44276;SDS011;29973;43.742;1.236;2023-11-19T12:42:45;6.00;;;4.07;;
44276;SDS011;29973;43.742;1.236;2023-11-19T12:45:15;11.27;;;5.67;;
44276;SDS011;29973;43.742;1.236;2023-11-19T12:47:44;8.98;;;5.68;;
44276;SDS011;29973;43.742;1.236;2023-11-19T12:50:14;8.30;;;5.53;;
44276;SDS011;29973;43.742;1.236;2023-11-19T12:52:42;7.28;;;4.93;;
44276;SDS011;29973;43.742;1.236;2023-11-19T12:55:29;8.20;;;5.00;;
44276;SDS011;29973;43.742;1.236;2023-11-19T12:57:57;8.30;;;5.03;;
44276;SDS011;29973;43.742;1.236;2023-11-19T13:00:24;10.05;;;5.07;;
44276;SDS011;29973;43.742;1.236;2023-11-19T13:02:57;6.75;;;4.70;;
44276;SDS011;29973;43.742;1.236;2023-11-19T13:05:31;10.60;;;5.55;;
44276;SDS011;29973;43.742;1.236;2023-11-19T13:08:06;8.65;;;5.53;;
44276;SDS011;29973;43.742;1.236;2023-11-19T13:10:54;8.30;;;4.97;;
44276;SDS011;29973;43.742;1.236;2023-11-19T13:13:19;6.60;;;4.53;;
44276;SDS011;29973;43.742;1.236;2023-11-19T13:15:45;9.38;;;5.82;;
44276;SDS011;29973;43.742;1.236;2023-11-19T13:18:11;7.82;;;5.65;;
44276;SDS011;29973;43.742;1.236;2023-11-19T13:20:39;9.23;;;6.18;;
44276;SDS011;29973;43.742;1.236;2023-11-19T13:23:05;9.48;;;5.38;;
44276;SDS011;29973;43.742;1.236;2023-11-19T13:25:35;7.10;;;5.30;;
44276;SDS011;29973;43.742;1.236;2023-11-19T13:28:01;8.10;;;5.40;;
44276;SDS011;29973;43.742;1.236;2023-11-19T13:30:27;7.68;;;5.20;;
44276;SDS011;29973;43.742;1.236;2023-11-19T13:32:54;8.02;;;5.07;;
44276;SDS011;29973;43.742;1.236;2023-11-19T13:35:20;11.55;;;5.50;;
44276;SDS011;29973;43.742;1.236;2023-11-19T13:37:47;7.57;;;5.05;;
44276;SDS011;29973;43.742;1.236;2023-11-19T13:40:13;8.80;;;4.70;;
44276;SDS011;29973;43.742;1.236;2023-11-19T13:42:40;6.88;;;4.55;;
44276;SDS011;29973;43.742;1.236;2023-11-19T13:45:10;6.82;;;4.65;;
44276;SDS011;29973;43.742;1.236;2023-11-19T13:47:42;8.95;;;5.40;;
44276;SDS011;29973;43.742;1.236;2023-11-19T13:50:09;10.48;;;4.85;;
44276;SDS011;29973;43.742;1.236;2023-11-19T13:52:37;6.78;;;5.05;;
44276;SDS011;29973;43.742;1.236;2023-11-19T13:55:07;8.13;;;5.25;;
44276;SDS011;29973;43.742;1.236;2023-11-19T13:57:34;8.00;;;4.88;;
44276;SDS011;29973;43.742;1.236;2023-11-19T14:00:06;7.55;;;4.97;;
44276;SDS011;29973;43.742;1.236;2023-11-19T14:02:44;5.47;;;4.43;;
44276;SDS011;29973;43.742;1.236;2023-11-19T14:05:11;9.10;;;5.20;;
44276;SDS011;29973;43.742;1.236;2023-11-19T14:07:38;6.65;;;4.13;;
44276;SDS011;29973;43.742;1.236;2023-11-19T14:10:05;7.78;;;4.88;;
44276;SDS011;29973;43.742;1.236;2023-11-19T14:12:32;6.95;;;4.85;;
44276;SDS011;29973;43.742;1.236;2023-11-19T14:14:58;6.85;;;4.18;;
44276;SDS011;29973;43.742;1.236;2023-11-19T14:17:25;6.80;;;4.00;;
44276;SDS011;29973;43.742;1.236;2023-11-19T14:19:51;8.00;;;4.45;;
44276;SDS011;29973;43.742;1.236;2023-11-19T14:22:17;6.40;;;3.90;;
44276;SDS011;29973;43.742;1.236;2023-11-19T14:24:43;6.78;;;3.85;;
44276;SDS011;29973;43.742;1.236;2023-11-19T14:27:12;10.07;;;5.30;;
44276;SDS011;29973;43.742;1.236;2023-11-19T14:29:37;8.30;;;4.72;;
44276;SDS011;29973;43.742;1.236;2023-11-19T14:32:04;9.60;;;4.40;;
44276;SDS011;29973;43.742;1.236;2023-11-19T14:34:33;6.72;;;4.07;;
44276;SDS011;29973;43.742;1.236;2023-11-19T14:36:59;6.55;;;4.35;;
44276;SDS011;29973;43.742;1.236;2023-11-19T14:39:25;6.32;;;3.97;;
44276;SDS011;29973;43.742;1.236;2023-11-19T14:41:51;7.03;;;4.35;;
44276;SDS011;29973;43.742;1.236;2023-11-19T14:44:23;7.45;;;4.13;;
44276;SDS011;29973;43.742;1.236;2023-11-19T14:46:49;8.93;;;4.18;;
44276;SDS011;29973;43.742;1.236;2023-11-19T14:49:15;5.40;;;3.92;;
44276;SDS011;29973;43.742;1.236;2023-11-19T14:51:41;6.97;;;3.75;;
44276;SDS011;29973;43.742;1.236;2023-11-19T14:54:07;6.00;;;3.75;;